KHVS

Hartsville Regional Airport

Hartsville, South Carolina, USA
METAR KHVS 261315Z AUTO 21004KT 7SM SCT008 BKN013 BKN025 23/22 A3001 RMK AO2
Observed Flight Rules
May-26 @ 13:15 UTC (14 minutes ago) Marginal Visual Flight Rules
Wind Visibility Clouds
210° at 4 knots 7 miles
  • Scattered at 800' AGL
  • Broken at 1,300' AGL
  • Broken at 2,500' AGL
Temperatures Readings
Current 23°C / 73°F
Dewpoint 22°C / 72°F
Humidity 94%
Altimeter 30.01" Hg
Pressure 1016 hPa
Elevation 111
METAR KHVS 261315Z AUTO 21004KT 7SM SCT008 BKN013 BKN025 23/22 A3001 RMK AO2
Observed Flight Rules
May-26 @ 13:15 UTC
(14 minutes ago)
MVFR
Wind Visibility
210° at 4 knots 7 miles
Clouds
  • Scattered at 800' AGL
  • Broken at 1,300' AGL
  • Broken at 2,500' AGL
Temperature Dewpoint
23°C / 73°F 22°C / 72°F
Humidity Altimeter Pressure
94% 30.01" Hg 1016 hPa